Normandy Isle, Florida
Current Conditions -  °F | °C
As of 5:53 PM on Friday 28 Nov 2014 (Local Time) from KMIA Reporting Station
Few Clouds Few Clouds  
Wind Chill: 66°   Ceiling: Unl
Heat Index: 66°   Visibility: 10mi
Dew Point: 51°   Wind: 6mph
Humidity: 59%   Direction: 360°N
Pressure: 30.18"   Gusts: NA
Location:  25.8619°N, 80.1259°W
Report Text: KMIA 282253Z 36005KT 10SM FEW045 FEW300 19/11 A3018 RMK AO2 SLP219 T01890106
Loading
Personal Weather Stations






























Interactive Weather Map New forecast layout! Learn more

10-Day Weather Forecast

Advertisements
Track Severe Weather on mobile